Time;durP1;ratioP1;P1;durP2;ratioP2;P2;SDS_P1;SDS_P2;PMS_P1;PMS_P2;Temp;Humidity;BMP_temperature;BMP_pressure;BME280_temperature;BME280_humidity;BME280_pressure;Samples;Min_cycle;Max_cycle;Signal;HPM_P1;HPM_P2
2023/08/23 00:01:54;;;;;;;;;;;16.30;1.00;;;;;;6109542;23;20024;-85
2023/08/23 00:04:19;;;;;;;3.83;2.72;;;16.30;1.00;;;;;;6158213;23;20299;-85
2023/08/23 00:06:45;;;;;;;4.85;2.47;;;16.40;1.00;;;;;;6133074;23;20021;-85
2023/08/23 00:09:11;;;;;;;5.45;3.20;;;16.30;1.00;;;;;;6133345;23;20010;-85
2023/08/23 00:11:37;;;;;;;6.38;3.60;;;16.30;1.00;;;;;;6108866;23;20528;-85
2023/08/23 00:14:03;;;;;;;5.07;4.05;;;16.20;1.00;;;;;;6109196;23;20035;-85
2023/08/23 00:16:29;;;;;;;3.40;2.63;;;16.20;1.00;;;;;;6158431;23;20052;-85
2023/08/23 00:18:55;;;;;;;3.80;2.47;;;16.20;1.00;;;;;;6133051;23;20024;-85
2023/08/23 00:21:21;;;;;;;2.90;2.70;;;16.20;1.00;;;;;;6133673;23;20020;-85
2023/08/23 00:23:47;;;;;;;3.40;2.50;;;16.20;1.00;;;;;;6132442;23;20255;-85
2023/08/23 00:26:13;;;;;;;2.80;2.50;;;16.20;1.00;;;;;;6183205;23;20013;-85
2023/08/23 00:28:39;;;;;;;;;;;16.20;1.00;;;;;;6109667;23;20017;-85
2023/08/23 00:31:05;;;;;;;2.95;2.75;;;16.10;1.00;;;;;;6157905;23;19938;-85
2023/08/23 00:33:31;;;;;;;4.13;3.40;;;16.00;1.00;;;;;;6133667;23;20078;-85
2023/08/23 00:35:57;;;;;;;4.57;4.18;;;15.90;1.00;;;;;;6157541;23;20112;-85
2023/08/23 00:38:23;;;;;;;3.25;2.95;;;15.40;1.00;;;;;;6133026;23;20025;-85
2023/08/23 00:40:49;;;;;;;3.38;3.08;;;15.80;1.00;;;;;;6109057;23;20454;-85
2023/08/23 00:43:14;;;;;;;4.13;2.70;;;15.80;1.00;;;;;;6133863;23;20024;-85
2023/08/23 00:45:42;;;;;;;2.57;2.37;;;15.80;1.00;;;;;;6133962;23;20438;-85
2023/08/23 00:48:11;;;;;;;4.28;3.20;;;15.70;1.00;;;;;;6158337;23;20263;-85
2023/08/23 00:50:38;;;;;;;5.43;3.28;;;15.70;1.00;;;;;;6135140;23;20521;-85
2023/08/23 00:53:06;;;;;;;5.00;2.60;;;15.70;1.00;;;;;;6184379;23;20039;-85
2023/08/23 00:55:33;;;;;;;3.25;2.88;;;15.80;1.00;;;;;;6160081;23;20017;-85
2023/08/23 00:57:59;;;;;;;4.15;3.38;;;15.80;1.00;;;;;;6184144;23;20017;-85
2023/08/23 01:00:26;;;;;;;6.20;4.57;;;15.80;1.00;;;;;;6135626;23;20472;-84
2023/08/23 01:02:55;;;;;;;4.32;3.40;;;15.80;1.00;;;;;;6134567;23;20338;-85
2023/08/23 01:05:45;;;;;;;3.25;2.95;;;15.90;1.00;;;;;;6184080;23;20100;-85
2023/08/23 01:08:31;;;;;;;5.00;4.50;;;15.80;1.00;;;;;;6160033;23;20017;-85
2023/08/23 01:11:16;;;;;;;4.43;3.30;;;15.80;1.00;;;;;;6159259;23;20021;-85
2023/08/23 01:14:02;;;;;;;5.28;3.65;;;15.80;1.00;;;;;;6184670;23;20017;-85
2023/08/23 01:16:30;;;;;;;5.43;3.88;;;15.80;1.00;;;;;;6159459;23;20023;-85
2023/08/23 01:18:58;;;;;;;5.43;4.25;;;15.80;1.00;;;;;;6134087;23;20017;-85
2023/08/23 01:21:32;;;;;;;10.23;4.72;;;15.80;1.00;;;;;;6184155;23;20319;-85
2023/08/23 01:23:58;;;;;;;38.33;8.10;;;15.80;1.00;;;;;;6158974;23;20181;-85
2023/08/23 01:26:24;;;;;;;13.05;6.18;;;15.80;1.00;;;;;;6184637;23;20017;-85
2023/08/23 01:28:51;;;;;;;7.03;4.60;;;15.80;1.00;;;;;;6183525;23;20067;-85
2023/08/23 01:31:21;;;;;;;6.38;5.22;;;15.70;1.00;;;;;;6135198;23;20629;-85
2023/08/23 01:34:03;;;;;;;8.60;4.55;;;15.70;1.00;;;;;;6184623;23;20472;-85
2023/08/23 01:36:30;;;;;;;8.43;5.32;;;15.70;1.00;;;;;;6135369;23;20346;-85
2023/08/23 01:38:57;;;;;;;7.00;5.22;;;15.70;1.00;;;;;;6182958;23;20028;-85
2023/08/23 01:41:24;;;;;;;8.48;5.80;;;15.70;2.10;;;;;;6135019;23;20057;-85
2023/08/23 01:43:51;;;;;;;10.60;5.95;;;15.70;3.40;;;;;;6109726;23;20100;-85
2023/08/23 01:46:17;;;;;;;8.80;5.20;;;15.70;1.00;;;;;;6184268;23;20394;-85
2023/08/23 01:48:43;;;;;;;16.30;5.63;;;15.60;1.00;;;;;;6134725;23;20059;-85
2023/08/23 01:51:08;;;;;;;6.95;5.25;;;15.60;1.10;;;;;;6134641;23;20364;-85
2023/08/23 01:53:34;;;;;;;8.50;6.27;;;15.60;2.30;;;;;;6135052;23;20564;-85
2023/08/23 01:56:00;;;;;;;6.50;5.80;;;15.60;1.50;;;;;;6158431;23;20251;-84
2023/08/23 01:58:26;;;;;;;8.10;6.57;;;15.50;1.00;;;;;;6185497;23;20096;-85
2023/08/23 02:00:54;;;;;;;9.90;6.45;;;15.50;1.00;;;;;;6133643;23;20473;-85
2023/08/23 02:03:20;;;;;;;6.43;5.55;;;15.50;1.00;;;;;;6183629;23;20099;-83
2023/08/23 02:05:50;;;;;;;6.13;4.53;;;15.40;1.00;;;;;;6110502;23;20405;-84
2023/08/23 02:08:16;;;;;;;8.35;6.05;;;15.40;1.00;;;;;;6183569;23;20020;-85
2023/08/23 02:10:42;;;;;;;7.22;6.18;;;15.40;1.50;;;;;;6159211;23;20096;-85
2023/08/23 02:13:08;;;;;;;7.00;6.27;;;15.40;1.50;;;;;;6134333;23;20056;-85
2023/08/23 02:15:33;;;;;;;10.32;5.38;;;15.40;4.80;;;;;;6134810;23;20028;-85
2023/08/23 02:17:59;;;;;;;20.47;6.33;;;14.40;9.70;;;;;;6133333;23;20014;-85
2023/08/23 02:20:25;;;;;;;14.17;5.77;;;15.40;11.80;;;;;;6159125;23;20442;-85
2023/08/23 02:22:51;;;;;;;15.73;5.37;;;15.30;12.30;;;;;;6134508;23;20249;-85
2023/08/23 02:25:16;;;;;;;40.08;7.13;;;15.30;12.50;;;;;;6133914;23;20103;-85
2023/08/23 02:27:42;;;;;;;20.05;6.22;;;15.20;11.80;;;;;;6158669;23;20056;-85
2023/08/23 02:30:08;;;;;;;7.53;5.20;;;15.10;8.90;;;;;;6134010;23;20073;-85
2023/08/23 02:32:34;;;;;;;38.40;6.55;;;15.10;10.40;;;;;;6134069;23;20028;-85
2023/08/23 02:35:01;;;;;;;44.90;7.10;;;15.00;10.60;;;;;;6133939;23;20019;-85
2023/08/23 02:37:27;;;;;;;12.95;5.38;;;15.00;11.80;;;;;;6158798;23;20016;-85
2023/08/23 02:39:53;;;;;;;9.57;5.73;;;15.00;15.40;;;;;;6134113;23;20144;-85
2023/08/23 02:42:18;;;;;;;14.53;5.63;;;15.00;18.40;;;;;;6182759;23;20017;-85
2023/08/23 02:44:44;;;;;;;6.43;5.00;;;15.00;20.00;;;;;;6159177;23;20103;-85
2023/08/23 02:47:10;;;;;;;14.27;6.10;;;15.00;19.50;;;;;;6108963;23;20278;-85
2023/08/23 02:49:36;;;;;;;9.02;6.00;;;14.90;19.90;;;;;;6110247;23;20017;-85
2023/08/23 02:52:01;;;;;;;9.37;5.23;;;14.90;20.30;;;;;;6158110;23;20048;-85
2023/08/23 02:54:27;;;;;;;8.32;4.88;;;14.90;22.10;;;;;;6110090;23;20100;-85
2023/08/23 02:56:53;;;;;;;5.87;4.80;;;14.90;23.30;;;;;;6134066;23;20028;-85
2023/08/23 02:59:18;;;;;;;6.50;5.00;;;14.90;23.30;;;;;;6109480;23;20113;-85
2023/08/23 03:01:44;;;;;;;5.10;3.80;;;15.00;23.70;;;;;;6133282;23;20017;-85
2023/08/23 03:04:10;;;;;;;5.17;4.03;;;14.90;24.30;;;;;;6133589;23;20107;-85
2023/08/23 03:06:35;;;;;;;8.07;4.25;;;14.90;25.00;;;;;;6158736;23;20013;-85
2023/08/23 03:09:01;;;;;;;4.63;4.23;;;14.90;25.80;;;;;;6182727;23;20052;-85
2023/08/23 03:11:27;;;;;;;5.47;3.90;;;15.00;26.60;;;;;;6109615;23;20017;-85
2023/08/23 03:13:53;;;;;;;4.83;4.23;;;14.90;26.30;;;;;;6134248;23;20689;-85
2023/08/23 03:16:18;;;;;;;7.47;4.50;;;14.90;25.80;;;;;;6182534;23;20020;-85
2023/08/23 03:18:44;;;;;;;5.17;4.67;;;15.00;26.40;;;;;;6158553;23;20274;-85
2023/08/23 03:21:10;;;;;;;6.43;4.73;;;14.90;26.00;;;;;;6182935;23;20248;-85
2023/08/23 03:23:35;;;;;;;6.13;4.97;;;14.90;25.10;;;;;;6109359;23;20013;-85
2023/08/23 03:26:01;;;;;;;7.07;4.63;;;15.00;25.30;;;;;;6183435;23;20328;-85
2023/08/23 03:28:27;;;;;;;6.17;5.47;;;15.00;24.70;;;;;;6133656;23;20112;-85
2023/08/23 03:30:52;;;;;;;8.07;5.33;;;15.00;25.10;;;;;;6158533;23;20521;-85
2023/08/23 03:33:18;;;;;;;5.13;4.63;;;15.00;25.90;;;;;;6182970;23;20068;-85
2023/08/23 03:35:44;;;;;;;9.83;5.47;;;15.00;26.90;;;;;;6134124;23;20477;-85
2023/08/23 03:38:09;;;;;;;16.90;6.30;;;15.00;28.60;;;;;;6132948;23;20126;-85
2023/08/23 03:40:39;;;;;;;12.03;6.60;;;15.00;30.30;;;;;;6183616;23;20017;-85
2023/08/23 03:43:05;;;;;;;8.98;6.15;;;15.10;32.20;;;;;;6183116;23;20052;-85
2023/08/23 03:45:31;;;;;;;23.17;6.53;;;15.10;34.40;;;;;;6109170;23;20017;-84
2023/08/23 03:47:57;;;;;;;10.73;7.13;;;15.10;35.80;;;;;;6158415;23;20028;-85
2023/08/23 03:50:22;;;;;;;11.23;7.30;;;15.10;37.30;;;;;;6133391;23;20096;-85
2023/08/23 03:52:48;;;;;;;18.05;8.50;;;15.10;38.20;;;;;;6183057;23;20405;-84
2023/08/23 03:55:14;;;;;;;23.77;8.33;;;15.10;39.70;;;;;;6133066;23;20017;-85
2023/08/23 03:57:40;;;;;;;28.65;8.70;;;15.10;39.80;;;;;;6158000;23;20279;-85
2023/08/23 04:00:07;;;;;;;38.50;8.43;;;15.00;42.10;;;;;;6157490;23;20067;-85
2023/08/23 04:02:33;;;;;;;20.27;7.32;;;15.00;43.70;;;;;;6109667;23;20017;-85
2023/08/23 04:05:01;;;;;;;32.73;8.33;;;15.00;45.70;;;;;;6183468;23;20071;-85
2023/08/23 04:07:26;;;;;;;16.50;7.63;;;15.00;46.70;;;;;;6133342;23;20025;-84
2023/08/23 04:09:52;;;;;;;11.80;7.43;;;15.00;48.30;;;;;;6133626;23;20307;-85
2023/08/23 04:12:18;;;;;;;25.57;7.47;;;15.00;50.20;;;;;;6133089;23;20021;-85
2023/08/23 04:14:43;;;;;;;51.43;9.93;;;15.00;52.40;;;;;;6133099;23;20025;-85
2023/08/23 04:17:09;;;;;;;18.37;7.47;;;15.00;53.50;;;;;;6182746;23;20017;-85
2023/08/23 04:19:35;;;;;;;46.20;7.67;;;15.00;54.20;;;;;;6133383;23;20017;-85
2023/08/23 04:22:00;;;;;;;8.67;5.80;;;15.00;55.10;;;;;;6085247;23;20256;-85
2023/08/23 04:24:26;;;;;;;18.00;6.77;;;15.00;56.10;;;;;;6108223;23;20021;-85
2023/08/23 04:26:52;;;;;;;10.73;6.83;;;15.00;56.70;;;;;;6158714;23;20411;-85
2023/08/23 04:29:17;;;;;;;7.23;6.53;;;15.10;55.90;;;;;;6107639;23;20049;-85
2023/08/23 04:31:43;;;;;;;6.87;6.00;;;15.10;55.70;;;;;;6133583;23;20013;-85
2023/08/23 04:34:09;;;;;;;12.20;6.33;;;15.10;55.90;;;;;;6158131;23;20075;-85
2023/08/23 04:36:34;;;;;;;12.27;7.03;;;15.10;56.60;;;;;;6108756;23;20032;-85
2023/08/23 04:39:00;;;;;;;8.80;6.80;;;15.10;57.20;;;;;;6182356;23;20438;-85
2023/08/23 04:41:26;;;;;;;8.00;7.20;;;15.10;58.80;;;;;;6132670;23;20053;-84
2023/08/23 04:43:51;;;;;;;7.70;6.30;;;15.10;59.80;;;;;;6109357;23;20399;-85
2023/08/23 04:46:17;;;;;;;9.20;6.73;;;15.10;60.80;;;;;;6108925;23;20039;-85
2023/08/23 04:48:43;;;;;;;7.70;7.00;;;15.10;60.80;;;;;;6158285;23;20339;-85
2023/08/23 04:51:09;;;;;;;7.67;6.93;;;15.20;62.20;;;;;;6182271;23;20025;-85
2023/08/23 04:53:35;;;;;;;8.30;7.60;;;15.10;62.50;;;;;;6108441;23;20013;-85
2023/08/23 04:56:01;;;;;;;8.85;8.05;;;15.10;63.50;;;;;;6182924;23;20454;-85
2023/08/23 04:58:30;;;;;;;8.52;7.65;;;15.10;64.80;;;;;;6157726;23;20083;-85
2023/08/23 05:01:05;;;;;;;8.95;8.10;;;15.10;66.60;;;;;;6133574;23;20013;-85
2023/08/23 05:03:35;;;;;;;9.27;8.38;;;15.20;69.60;;;;;;6157317;23;20017;-85
2023/08/23 05:06:01;;;;;;;8.93;8.02;;;15.20;69.60;;;;;;6182806;23;20084;-85
2023/08/23 05:08:28;;;;;;;9.38;8.15;;;15.20;71.30;;;;;;6182422;23;20017;-85
2023/08/23 05:10:55;;;;;;;8.55;7.65;;;15.20;71.30;;;;;;6132974;23;20021;-85
2023/08/23 05:13:22;;;;;;;9.52;8.63;;;15.20;71.60;;;;;;6132230;23;20336;-84
2023/08/23 05:15:52;;;;;;;9.77;8.43;;;15.20;71.60;;;;;;6160501;23;20017;-84
2023/08/23 05:18:18;;;;;;;10.30;9.20;;;15.30;71.90;;;;;;6181542;23;20331;-85
2023/08/23 05:20:44;;;;;;;11.20;10.00;;;15.30;71.30;;;;;;6182681;23;20017;-85
2023/08/23 05:23:09;;;;;;;11.33;10.20;;;15.30;71.80;;;;;;6182609;23;20036;-85
2023/08/23 05:25:35;;;;;;;13.50;11.60;;;15.30;72.50;;;;;;6132804;23;20028;-85
2023/08/23 05:28:01;;;;;;;12.77;11.47;;;15.40;73.60;;;;;;6184472;23;20241;-84
2023/08/23 05:30:26;;;;;;;12.05;10.95;;;15.40;74.60;;;;;;6132747;23;20017;-85
2023/08/23 05:32:52;;;;;;;12.70;11.37;;;15.50;76.10;;;;;;6181336;23;20023;-85
2023/08/23 05:35:18;;;;;;;14.03;11.80;;;15.60;77.60;;;;;;6134686;23;20248;-85
2023/08/23 05:37:43;;;;;;;14.53;11.30;;;15.60;78.70;;;;;;6134268;23;20017;-87
2023/08/23 05:40:09;;;;;;;12.60;10.70;;;15.70;78.90;;;;;;6159477;23;20091;-86
2023/08/23 05:42:35;;;;;;;12.13;10.90;;;15.80;77.60;;;;;;6185085;23;20017;-86
2023/08/23 05:45:01;;;;;;;11.43;10.17;;;15.90;76.20;;;;;;6110234;23;20024;-86
2023/08/23 05:47:28;;;;;;;11.52;9.98;;;15.90;75.40;;;;;;6184283;23;20454;-86
2023/08/23 05:49:53;;;;;;;10.40;9.40;;;15.90;75.20;;;;;;6160053;23;20056;-86
2023/08/23 05:52:19;;;;;;;11.90;10.67;;;15.90;74.70;;;;;;6135053;23;20025;-86
2023/08/23 05:54:45;;;;;;;10.57;9.57;;;15.90;73.40;;;;;;6110598;23;20101;-86
2023/08/23 05:57:10;;;;;;;12.57;11.23;;;15.90;73.20;;;;;;6135502;23;20500;-86
2023/08/23 05:59:36;;;;;;;13.03;11.33;;;16.00;73.90;;;;;;6158773;23;20025;-86
2023/08/23 06:02:02;;;;;;;13.07;11.60;;;16.10;73.20;;;;;;6110697;23;20331;-86
2023/08/23 06:04:28;;;;;;;11.13;9.93;;;16.10;73.80;;;;;;6134576;23;20032;-84
2023/08/23 06:06:54;;;;;;;13.57;11.40;;;16.10;74.20;;;;;;6110300;23;20013;-85
2023/08/23 06:09:19;;;;;;;15.10;12.88;;;16.10;75.50;;;;;;6158463;23;20517;-85
2023/08/23 06:11:45;;;;;;;14.40;12.87;;;16.20;77.90;;;;;;6183347;23;20028;-83
2023/08/23 06:14:24;;;;;;;16.30;14.67;;;16.30;78.40;;;;;;6134394;23;20052;-84
2023/08/23 06:16:50;;;;;;;17.80;14.85;;;16.60;80.60;;;;;;6183169;23;20017;-83
2023/08/23 06:19:16;;;;;;;18.60;14.45;;;16.70;78.10;;;;;;6183657;23;20048;-83
2023/08/23 06:21:42;;;;;;;15.85;13.57;;;16.90;77.80;;;;;;6159194;23;20319;-84
2023/08/23 06:24:08;;;;;;;19.33;15.02;;;17.10;75.90;;;;;;6135060;23;20355;-86
2023/08/23 06:26:34;;;;;;;17.73;14.52;;;17.10;74.80;;;;;;6134451;23;20013;-86
2023/08/23 06:29:00;;;;;;;16.57;14.00;;;17.30;75.10;;;;;;6184416;23;20104;-85
2023/08/23 06:31:26;;;;;;;18.92;15.80;;;17.40;74.10;;;;;;6135217;23;20252;-85
2023/08/23 06:33:51;;;;;;;20.50;15.57;;;17.50;74.90;;;;;;6108219;23;20013;-86
2023/08/23 06:36:17;;;;;;;20.58;16.88;;;17.60;73.80;;;;;;6159469;23;20252;-85
2023/08/23 06:38:43;;;;;;;20.08;16.30;;;17.70;72.50;;;;;;6133700;23;20021;-86
2023/08/23 06:41:09;;;;;;;20.15;17.63;;;17.90;71.40;;;;;;6134019;23;20028;-86
2023/08/23 06:43:34;;;;;;;24.02;16.33;;;17.90;70.20;;;;;;6134092;23;20027;-86
2023/08/23 06:46:03;;;;;;;20.13;17.08;;;18.10;70.20;;;;;;6134179;23;20017;-85
2023/08/23 06:48:28;;;;;;;20.85;16.33;;;18.20;69.20;;;;;;6134274;23;20045;-85
2023/08/23 06:50:54;;;;;;;21.20;16.38;;;18.30;67.10;;;;;;6133834;23;20017;-86
2023/08/23 06:53:20;;;;;;;22.60;15.48;;;18.40;65.70;;;;;;6109622;23;20021;-86
2023/08/23 06:55:46;;;;;;;18.27;15.20;;;18.50;61.20;;;;;;6158810;23;20094;-86
2023/08/23 06:58:12;;;;;;;16.10;14.43;;;18.60;59.50;;;;;;6159082;23;20501;-88
2023/08/23 07:00:37;;;;;;;15.07;13.43;;;18.70;57.30;;;;;;6182876;23;20096;-87
2023/08/23 07:03:04;;;;;;;14.18;12.30;;;18.80;55.70;;;;;;6183308;23;20338;-86
2023/08/23 07:05:29;;;;;;;14.05;12.60;;;18.90;53.80;;;;;;6182759;23;20464;-88
2023/08/23 07:07:55;;;;;;;12.98;11.63;;;18.90;50.50;;;;;;6108955;23;20048;-87
2023/08/23 07:10:21;;;;;;;14.48;12.27;;;18.90;47.60;;;;;;6109642;23;20025;-87
2023/08/23 07:12:47;;;;;;;14.80;13.02;;;18.80;48.00;;;;;;6182342;23;20070;-87
2023/08/23 07:15:12;;;;;;;18.50;13.43;;;18.80;47.50;;;;;;6134080;23;20013;-87
2023/08/23 07:17:38;;;;;;;14.90;12.75;;;18.90;49.40;;;;;;6109297;23;20016;-86
2023/08/23 07:20:06;;;;;;;14.50;12.98;;;19.10;47.60;;;;;;6134046;23;20024;-85
2023/08/23 07:22:32;;;;;;;13.13;11.48;;;19.20;47.90;;;;;;6183391;23;20049;-85
2023/08/23 07:24:58;;;;;;;13.23;11.90;;;19.40;47.50;;;;;;6183041;23;20020;-85
2023/08/23 07:27:24;;;;;;;13.20;11.35;;;19.50;43.10;;;;;;6183679;23;20048;-84
2023/08/23 07:29:49;;;;;;;13.63;11.25;;;19.40;38.70;;;;;;6183037;23;20096;-84
2023/08/23 07:32:15;;;;;;;14.63;12.35;;;19.40;39.80;;;;;;6134217;23;20465;-84
2023/08/23 07:34:41;;;;;;;13.68;11.68;;;19.40;38.70;;;;;;6183746;23;20017;-84
2023/08/23 07:37:06;;;;;;;11.30;10.20;;;19.50;39.20;;;;;;6134725;23;20075;-84
2023/08/23 07:39:32;;;;;;;14.88;11.50;;;19.50;39.30;;;;;;6183665;23;20488;-85
2023/08/23 07:41:58;;;;;;;11.73;8.95;;;19.60;38.60;;;;;;6133407;23;20031;-84
2023/08/23 07:44:24;;;;;;;7.88;7.10;;;19.70;33.90;;;;;;6185144;23;20028;-84
2023/08/23 07:46:49;;;;;;;9.93;7.78;;;19.70;28.20;;;;;;6158306;23;20016;-84
2023/08/23 07:49:16;;;;;;;7.93;7.13;;;19.80;24.50;;;;;;6183399;23;20017;-84
2023/08/23 07:51:41;;;;;;;7.68;6.88;;;19.90;22.00;;;;;;6158001;23;20474;-84
2023/08/23 07:54:07;;;;;;;7.05;6.00;;;19.90;18.60;;;;;;6183433;23;20052;-84
2023/08/23 07:56:33;;;;;;;7.47;5.90;;;19.90;13.90;;;;;;6134492;23;20032;-84
2023/08/23 07:58:59;;;;;;;7.65;6.13;;;19.90;10.20;;;;;;6183111;23;20931;-84
2023/08/23 08:01:26;;;;;;;5.93;5.32;;;19.80;8.00;;;;;;6183342;23;20052;-83
2023/08/23 08:03:52;;;;;;;4.95;4.45;;;19.80;10.00;;;;;;6133380;23;20393;-83
2023/08/23 08:06:18;;;;;;;5.80;5.20;;;19.90;9.70;;;;;;6158374;23;20021;-83
2023/08/23 08:08:45;;;;;;;6.45;4.97;;;20.00;6.00;;;;;;6182463;23;20349;-83
2023/08/23 08:11:12;;;;;;;5.53;4.93;;;20.10;8.20;;;;;;6158201;23;20434;-84
2023/08/23 08:13:37;;;;;;;6.75;5.50;;;20.20;6.50;;;;;;6158355;23;20021;-83
2023/08/23 08:16:09;;;;;;;7.45;6.32;;;20.30;1.00;;;;;;6182896;23;20028;-84
2023/08/23 08:18:35;;;;;;;6.40;5.57;;;20.30;1.00;;;;;;6158918;23;20044;-83
2023/08/23 08:21:01;;;;;;;7.38;5.22;;;20.40;1.00;;;;;;6181600;23;20017;-83
2023/08/23 08:23:28;;;;;;;7.25;4.85;;;20.50;1.00;;;;;;6182365;23;20021;-83
2023/08/23 08:25:54;;;;;;;6.28;5.65;;;20.60;1.00;;;;;;6181645;23;20017;-83
2023/08/23 08:28:20;;;;;;;6.47;5.10;;;20.70;1.00;;;;;;6182080;23;20021;-83
2023/08/23 08:30:46;;;;;;;5.53;4.28;;;20.80;1.00;;;;;;6132130;23;20319;-83
2023/08/23 08:33:12;;;;;;;7.90;5.20;;;20.90;1.00;;;;;;6133179;23;20025;-83
2023/08/23 08:35:38;;;;;;;6.45;4.95;;;20.90;1.00;;;;;;6157931;23;20052;-83
2023/08/23 08:38:03;;;;;;;7.10;4.90;;;20.90;1.00;;;;;;6156920;23;20013;-82
2023/08/23 08:40:30;;;;;;;7.38;4.80;;;20.90;1.00;;;;;;6132881;23;20025;-84
2023/08/23 08:42:56;;;;;;;5.95;5.35;;;21.00;1.00;;;;;;6156937;23;20023;-85
2023/08/23 08:45:21;;;;;;;5.72;4.85;;;21.00;1.00;;;;;;6157697;23;20028;-85
2023/08/23 08:47:48;;;;;;;4.88;4.45;;;21.10;1.00;;;;;;6132870;23;20021;-84
2023/08/23 08:50:14;;;;;;;8.45;5.55;;;21.10;1.00;;;;;;6182525;23;20021;-85
2023/08/23 08:52:43;;;;;;;5.60;4.85;;;21.10;1.00;;;;;;6157700;23;20017;-85
2023/08/23 08:55:11;;;;;;;7.20;4.88;;;21.10;1.00;;;;;;6157404;23;20096;-85
2023/08/23 08:57:37;;;;;;;6.32;3.90;;;21.20;1.00;;;;;;6157207;23;20068;-85
2023/08/23 09:00:05;;;;;;;5.40;4.60;;;21.30;1.00;;;;;;6159198;23;20013;-82
2023/08/23 09:02:32;;;;;;;5.05;4.40;;;21.40;1.00;;;;;;6108586;23;20096;-86
2023/08/23 09:04:58;;;;;;;5.70;4.75;;;21.50;1.00;;;;;;6132367;23;20169;-85
2023/08/23 09:07:24;;;;;;;4.60;4.20;;;21.50;1.00;;;;;;6132252;23;20381;-87
2023/08/23 09:09:50;;;;;;;4.43;3.88;;;21.50;1.00;;;;;;6133332;23;20024;-85
2023/08/23 09:12:16;;;;;;;3.85;3.40;;;21.50;1.00;;;;;;6133896;23;20025;-87
2023/08/23 09:14:49;;;;;;;4.15;3.75;;;21.60;1.00;;;;;;6188192;23;20805;-85
2023/08/23 09:17:15;;;;;;;5.40;3.85;;;21.70;1.00;;;;;;6164872;23;20053;-89
2023/08/23 09:19:40;;;;;;;7.43;4.45;;;21.80;1.00;;;;;;6118204;23;20020;-86
2023/08/23 09:22:06;;;;;;;4.45;3.25;;;21.90;1.00;;;;;;6166357;23;20021;-88
2023/08/23 09:24:33;;;;;;;5.43;3.30;;;22.00;1.00;;;;;;6148421;23;20028;-90
2023/08/23 09:27:00;;;;;;;3.55;2.88;;;22.00;99.90;;;;;;6146870;23;20032;-88
2023/08/23 09:29:26;;;;;;;3.92;2.30;;;22.10;99.90;;;;;;6166202;23;20021;-85
2023/08/23 09:31:51;;;;;;;4.85;3.10;;;22.20;99.90;;;;;;6166152;23;20024;-86
2023/08/23 09:34:17;;;;;;;5.25;3.05;;;22.20;99.90;;;;;;6166376;23;20100;-85
2023/08/23 09:36:43;;;;;;;4.05;2.58;;;22.30;99.90;;;;;;6166392;23;20643;-86
2023/08/23 09:39:10;;;;;;;3.22;2.65;;;22.30;99.90;;;;;;6140844;23;20052;-85
2023/08/23 09:41:41;;;;;;;2.97;2.67;;;22.40;99.90;;;;;;6184110;23;20350;-84
2023/08/23 09:44:07;;;;;;;5.88;2.85;;;22.50;99.90;;;;;;6134795;23;20083;-85
2023/08/23 09:46:35;;;;;;;;;;;22.60;99.90;;;;;;6163572;23;20572;-88
2023/08/23 09:49:04;;;;;;;3.47;2.83;;;22.60;99.90;;;;;;6170468;23;19940;-86
2023/08/23 09:51:33;;;;;;;5.63;2.92;;;22.70;99.90;;;;;;6207662;23;20020;-84
2023/08/23 09:54:06;;;;;;;6.03;3.10;;;22.70;99.90;;;;;;6182890;23;20017;-86
2023/08/23 09:56:32;;;;;;;6.90;3.03;;;22.80;1.00;;;;;;6188164;23;20025;-84
2023/08/23 09:58:58;;;;;;;2.95;2.60;;;22.80;1.00;;;;;;6136670;23;20017;-86
2023/08/23 10:01:26;;;;;;;7.32;3.47;;;22.80;1.00;;;;;;6163388;23;20021;-86
2023/08/23 10:03:51;;;;;;;7.78;4.15;;;22.80;99.90;;;;;;6192376;23;20017;-85
2023/08/23 10:06:18;;;;;;;10.50;5.00;;;22.80;99.90;;;;;;6167856;23;20258;-86
2023/08/23 10:08:45;;;;;;;4.53;3.35;;;22.20;99.90;;;;;;6143689;23;20112;-89
2023/08/23 10:11:11;;;;;;;5.53;3.42;;;23.10;99.90;;;;;;6195192;23;20067;-88
2023/08/23 10:13:38;;;;;;;6.65;3.45;;;23.20;99.90;;;;;;6144475;23;20021;-90
2023/08/23 10:16:06;;;;;;;6.22;3.10;;;23.20;99.90;;;;;;6165587;23;20013;-89
2023/08/23 10:18:34;;;;;;;6.57;3.38;;;23.20;56.00;;;;;;6134307;23;20044;-86
2023/08/23 10:21:01;;;;;;;5.18;3.17;;;23.20;15.40;;;;;;6133921;23;20021;-86
2023/08/23 10:23:29;;;;;;;5.03;3.58;;;23.10;99.90;;;;;;6159856;23;20445;-87
2023/08/23 10:25:54;;;;;;;5.22;3.67;;;23.10;99.90;;;;;;6135363;23;20020;-88
2023/08/23 10:28:20;;;;;;;4.47;3.67;;;23.00;99.90;;;;;;6159254;23;20224;-88
2023/08/23 10:30:50;;;;;;;5.10;3.95;;;23.20;99.90;;;;;;6159768;23;20032;-89
2023/08/23 10:33:17;;;;;;;5.10;3.78;;;23.10;99.90;;;;;;6159320;23;20017;-92
2023/08/23 10:35:47;;;;;;;4.68;3.63;;;23.00;1.00;;;;;;6184497;23;20442;-91
2023/08/23 10:38:14;;;;;;;5.32;3.95;;;23.10;99.90;;;;;;6167417;23;20029;-90
2023/08/23 10:40:47;;;;;;;4.55;2.97;;;23.10;99.90;;;;;;6167308;23;20399;-90
2023/08/23 10:43:22;;;;;;;6.32;4.03;;;23.20;99.90;;;;;;6142062;23;20013;-90
2023/08/23 10:45:49;;;;;;;6.25;3.75;;;23.30;85.90;;;;;;6142685;23;20083;-89
2023/08/23 10:48:15;;;;;;;6.57;5.05;;;23.40;99.90;;;;;;6169099;23;20463;-90
2023/08/23 10:50:41;;;;;;;6.32;4.30;;;23.50;99.90;;;;;;6194930;23;20024;-92
2023/08/23 10:53:09;;;;;;;6.97;4.65;;;23.50;99.90;;;;;;6144848;23;20025;-93
2023/08/23 10:55:35;;;;;;;5.75;4.22;;;23.50;1.40;;;;;;6196038;23;20021;-93
2023/08/23 10:58:01;;;;;;;5.07;3.78;;;23.60;99.90;;;;;;6125247;23;20020;-88
2023/08/23 11:00:28;;;;;;;8.15;4.18;;;23.70;1.00;;;;;;6131063;23;20036;-90
2023/08/23 11:02:56;;;;;;;7.93;4.72;;;23.80;99.90;;;;;;6160611;23;20021;-85
2023/08/23 11:05:22;;;;;;;7.10;3.45;;;24.00;99.90;;;;;;6176212;23;20017;-87
2023/08/23 11:07:49;;;;;;;;;;;24.00;9.00;;;;;;6143561;23;20015;-87
2023/08/23 11:10:15;;;;;;;;;;;24.10;99.90;;;;;;6167794;23;19923;-87
2023/08/23 11:12:40;;;;;;;6.68;4.60;;;24.20;1.00;;;;;;6119056;23;19916;-87
2023/08/23 11:15:07;;;;;;;5.22;4.60;;;24.30;99.90;;;;;;6144518;23;20052;-86
2023/08/23 11:17:34;;;;;;;7.20;5.05;;;24.30;99.90;;;;;;6119363;23;20045;-91
2023/08/23 11:20:00;;;;;;;7.30;4.60;;;24.40;99.90;;;;;;6119869;23;20021;-88
2023/08/23 11:22:26;;;;;;;8.73;5.07;;;24.50;99.90;;;;;;6143246;23;20161;-88
2023/08/23 11:24:52;;;;;;;4.57;4.07;;;24.60;1.00;;;;;;6160364;23;20529;-87
2023/08/23 11:27:19;;;;;;;6.45;5.07;;;24.70;1.00;;;;;;6134704;23;20381;-87
2023/08/23 11:29:45;;;;;;;5.75;4.18;;;24.70;99.90;;;;;;6145869;23;20013;-87
2023/08/23 11:32:11;;;;;;;;;;;24.60;1.00;;;;;;6119364;23;20047;-87
2023/08/23 11:34:37;;;;;;;6.15;3.90;;;24.60;99.90;;;;;;6117461;23;20289;-86
2023/08/23 11:37:09;;;;;;;8.30;4.60;;;24.60;1.00;;;;;;6189477;23;20019;-88
2023/08/23 11:39:35;;;;;;;4.75;4.30;;;24.70;99.90;;;;;;6139934;23;20032;-94
2023/08/23 11:42:01;;;;;;;8.18;4.70;;;24.70;1.00;;;;;;6190895;23;20392;-91
2023/08/23 11:44:30;;;;;;;6.45;4.13;;;24.60;99.90;;;;;;6142988;23;20021;-96
2023/08/23 11:46:59;;;;;;;6.45;3.42;;;24.60;28.90;;;;;;6143609;23;20021;-95
2023/08/23 11:49:25;;;;;;;5.97;4.20;;;24.60;99.90;;;;;;6143194;23;20021;-89
2023/08/23 11:51:52;;;;;;;5.40;3.83;;;24.60;99.90;;;;;;6166178;23;20020;-89
2023/08/23 11:54:18;;;;;;;9.43;3.75;;;24.70;1.00;;;;;;6166019;23;20028;-87
2023/08/23 11:56:44;;;;;;;4.93;4.43;;;24.70;99.90;;;;;;6190524;23;20041;-86
2023/08/23 11:59:12;;;;;;;5.57;3.45;;;24.60;99.90;;;;;;6140998;23;20105;-86
2023/08/23 12:01:38;;;;;;;6.43;3.75;;;24.50;1.00;;;;;;6140971;23;20461;-87
2023/08/23 12:04:05;;;;;;;;;;;24.40;1.00;;;;;;6165159;23;20009;-86
2023/08/23 12:06:30;;;;;;;7.10;4.13;;;24.20;99.90;;;;;;6190973;23;19924;-87
2023/08/23 12:08:56;;;;;;;9.90;4.65;;;24.00;3.90;;;;;;6165774;23;20021;-87
2023/08/23 12:11:22;;;;;;;6.60;4.20;;;23.90;12.00;;;;;;6190081;23;20048;-86
2023/08/23 12:13:48;;;;;;;7.88;4.15;;;23.80;99.90;;;;;;6194841;23;20075;-86
2023/08/23 12:16:13;;;;;;;6.75;4.10;;;23.70;99.90;;;;;;6169963;23;20024;-84
2023/08/23 12:18:41;;;;;;;7.15;4.53;;;23.70;99.90;;;;;;6198703;23;20438;-86
2023/08/23 12:21:07;;;;;;;9.80;3.90;;;23.90;99.90;;;;;;6166561;23;20088;-86
2023/08/23 12:23:32;;;;;;;5.35;3.40;;;24.00;1.00;;;;;;6190529;23;20017;-87
2023/08/23 12:25:58;;;;;;;8.25;3.88;;;23.90;1.00;;;;;;6116364;23;20105;-88
2023/08/23 12:28:24;;;;;;;5.65;3.92;;;23.90;1.00;;;;;;6190128;23;20028;-87
2023/08/23 12:30:50;;;;;;;6.18;3.38;;;24.00;99.90;;;;;;6142473;23;20021;-91
2023/08/23 12:33:15;;;;;;;2.47;2.25;;;24.20;1.00;;;;;;6167300;23;20017;-89
2023/08/23 12:35:41;;;;;;;4.25;2.17;;;24.50;1.00;;;;;;6117086;23;20017;-89
2023/08/23 12:38:07;;;;;;;3.97;2.30;;;24.60;99.90;;;;;;6191748;23;20068;-90
2023/08/23 12:40:33;;;;;;;5.40;2.83;;;24.80;1.00;;;;;;6164990;23;20028;-89
2023/08/23 12:42:59;;;;;;;;;;;25.00;1.00;;;;;;6142125;23;20055;-90
2023/08/23 12:45:24;;;;;;;2.65;2.33;;;24.90;99.90;;;;;;6193952;23;19916;-90